createdAt,value
2023-03-17T00:00:46.871Z,88.78
2023-03-17T00:01:46.831Z,88.88
2023-03-17T00:02:46.894Z,87.64
2023-03-17T00:03:46.851Z,88.88
2023-03-17T00:04:46.805Z,90.44
2023-03-17T00:05:46.782Z,88.78
2023-03-17T00:06:46.778Z,88.46
2023-03-17T00:07:46.756Z,89.40
2023-03-17T00:08:46.760Z,89.81
2023-03-17T00:09:46.739Z,90.02
2023-03-17T00:10:46.721Z,89.09
2023-03-17T00:11:46.733Z,88.67
2023-03-17T00:12:46.712Z,89.40
2023-03-17T00:13:46.698Z,88.98
2023-03-17T00:14:46.688Z,88.88
2023-03-17T00:15:46.702Z,89.81
2023-03-17T00:16:46.672Z,89.61
2023-03-17T00:17:46.709Z,87.85
2023-03-17T00:18:46.652Z,87.95
2023-03-17T00:19:46.638Z,87.64
2023-03-17T00:20:46.633Z,88.36
2023-03-17T00:21:46.620Z,88.46
2023-03-17T00:22:46.631Z,87.23
2023-03-17T00:23:46.593Z,90.33
2023-03-17T00:24:46.593Z,88.67
2023-03-17T00:25:46.578Z,90.44
2023-03-17T00:26:46.574Z,88.46
2023-03-17T00:27:46.587Z,88.06
2023-03-17T00:28:46.558Z,87.33
2023-03-17T00:29:46.539Z,90.12
2023-03-17T00:30:46.531Z,89.50
2023-03-17T00:31:46.517Z,88.67
2023-03-17T00:32:46.554Z,88.88
2023-03-17T00:33:46.554Z,90.02
2023-03-17T00:34:46.485Z,89.54
2023-03-17T00:35:46.628Z,89.34
2023-03-17T00:36:46.490Z,91.20
2023-03-17T00:37:46.463Z,88.40
2023-03-17T00:38:46.453Z,89.65
2023-03-17T00:39:46.441Z,91.82
2023-03-17T00:40:50.813Z,90.68
2023-03-17T00:41:51.067Z,90.47
2023-03-17T00:42:46.411Z,91.61
2023-03-17T00:43:46.426Z,90.26
2023-03-17T00:44:46.409Z,90.06
2023-03-17T00:45:46.393Z,90.16
2023-03-17T00:46:46.675Z,90.68
2023-03-17T00:47:46.354Z,90.99
2023-03-17T00:48:46.353Z,89.34
2023-03-17T00:49:46.335Z,88.51
2023-03-17T00:50:46.331Z,90.68
2023-03-17T00:51:46.315Z,91.41
2023-03-17T00:52:46.385Z,91.20
2023-03-17T00:53:46.306Z,90.99
2023-03-17T00:54:46.300Z,89.23
2023-03-17T00:55:46.284Z,88.57
2023-03-17T00:56:46.274Z,89.61
2023-03-17T00:57:46.282Z,91.67
2023-03-17T00:58:46.307Z,90.47
2023-03-17T00:59:46.242Z,89.65
2023-03-17T01:00:46.282Z,87.85
2023-03-17T01:01:46.299Z,86.71
2023-03-17T01:02:46.228Z,88.26
2023-03-17T01:03:46.216Z,88.78
2023-03-17T01:04:52.915Z,88.46
2023-03-17T01:05:46.203Z,88.46
2023-03-17T01:06:46.173Z,88.88
2023-03-17T01:07:46.168Z,88.26
2023-03-17T01:08:46.160Z,89.19
2023-03-17T01:09:46.153Z,87.12
2023-03-17T01:10:46.144Z,88.67
2023-03-17T01:11:46.133Z,89.40
2023-03-17T01:12:46.136Z,88.36
2023-03-17T01:13:46.113Z,88.78
2023-03-17T01:14:46.107Z,88.26
2023-03-17T01:15:46.094Z,86.29
2023-03-17T01:16:46.107Z,87.95
2023-03-17T01:17:46.075Z,87.12
2023-03-17T01:18:46.111Z,87.43
2023-03-17T01:19:46.039Z,87.02
2023-03-17T01:20:46.052Z,86.88
2023-03-17T01:21:46.024Z,87.08
2023-03-17T01:22:46.011Z,87.02
2023-03-17T01:23:46.009Z,87.95
2023-03-17T01:24:45.996Z,88.46
2023-03-17T01:25:45.985Z,87.43
2023-03-17T01:26:45.988Z,88.78
2023-03-17T01:27:45.970Z,86.81
2023-03-17T01:28:45.958Z,86.81
2023-03-17T01:29:45.972Z,88.16
2023-03-17T01:30:45.932Z,88.98
2023-03-17T01:31:46.028Z,87.23
2023-03-17T01:32:45.922Z,88.98
2023-03-17T01:33:45.915Z,88.67
2023-03-17T01:34:45.894Z,88.06
2023-03-17T01:35:46.062Z,89.29
2023-03-17T01:36:45.876Z,89.71
2023-03-17T01:37:45.874Z,89.96
2023-03-17T01:38:45.849Z,89.13
2023-03-17T01:39:45.849Z,90.06
2023-03-17T01:40:45.829Z,90.68
2023-03-17T01:41:45.860Z,88.82
2023-03-17T01:42:45.820Z,90.58
2023-03-17T01:43:45.807Z,88.61
2023-03-17T01:44:45.834Z,88.20
2023-03-17T01:45:45.854Z,89.13
2023-03-17T01:46:45.782Z,88.40
2023-03-17T01:47:45.765Z,89.96
2023-03-17T01:48:45.765Z,90.68
2023-03-17T01:49:45.743Z,90.58
2023-03-17T01:50:45.999Z,88.36
2023-03-17T01:51:45.756Z,87.02
2023-03-17T01:52:45.728Z,88.78
2023-03-17T01:53:45.709Z,88.57
2023-03-17T01:54:45.700Z,87.95
2023-03-17T01:55:45.692Z,86.81
2023-03-17T01:56:45.674Z,87.85
2023-03-17T01:57:45.679Z,88.46
2023-03-17T01:58:45.657Z,88.88
2023-03-17T01:59:45.652Z,86.60
2023-03-17T02:00:45.671Z,88.57
2023-03-17T02:01:45.627Z,86.09
2023-03-17T02:02:45.644Z,87.12
2023-03-17T02:03:45.745Z,88.06
2023-03-17T02:04:45.598Z,86.81
2023-03-17T02:05:45.585Z,86.29
2023-03-17T02:06:57.364Z,88.16
2023-03-17T02:07:45.593Z,88.46
2023-03-17T02:08:45.592Z,87.95
2023-03-17T02:09:45.552Z,86.19
2023-03-17T02:10:45.543Z,86.71
2023-03-17T02:11:45.537Z,88.06
2023-03-17T02:12:45.552Z,87.23
2023-03-17T02:13:45.525Z,85.47
2023-03-17T02:14:45.498Z,86.25
2023-03-17T02:15:45.508Z,87.08
2023-03-17T02:16:45.548Z,85.74
2023-03-17T02:17:45.475Z,86.15
2023-03-17T02:18:45.496Z,86.05
2023-03-17T02:19:45.452Z,87.81
2023-03-17T02:20:45.451Z,88.57
2023-03-17T02:21:45.438Z,86.91
2023-03-17T02:22:45.433Z,87.95
2023-03-17T02:23:45.431Z,88.16
2023-03-17T02:24:45.406Z,88.67
2023-03-17T02:25:45.441Z,88.36
2023-03-17T02:26:45.386Z,87.60
2023-03-17T02:27:45.370Z,86.46
2023-03-17T02:28:45.360Z,87.18
2023-03-17T02:29:45.362Z,87.49
2023-03-17T02:30:45.383Z,88.12
2023-03-17T02:31:45.353Z,86.77
2023-03-17T02:32:45.360Z,87.49
2023-03-17T02:33:45.306Z,87.81
2023-03-17T02:34:45.323Z,88.53
2023-03-17T02:35:45.318Z,88.26
2023-03-17T02:36:45.322Z,88.26
2023-03-17T02:37:45.285Z,85.53
2023-03-17T02:38:45.302Z,88.12
2023-03-17T02:39:45.252Z,87.60
2023-03-17T02:40:45.261Z,86.67
2023-03-17T02:41:45.236Z,85.22
2023-03-17T02:42:45.234Z,86.36
2023-03-17T02:43:45.214Z,85.02
2023-03-17T02:44:45.234Z,86.67
2023-03-17T02:45:45.252Z,87.60
2023-03-17T02:46:45.194Z,86.98
2023-03-17T02:47:45.179Z,87.18
2023-03-17T02:48:45.170Z,87.18
2023-03-17T02:49:45.162Z,86.57
2023-03-17T02:50:45.152Z,86.67
2023-03-17T02:51:45.183Z,85.94
2023-03-17T02:52:45.140Z,87.60
2023-03-17T02:53:45.124Z,86.77
2023-03-17T02:54:45.113Z,87.91
2023-03-17T02:55:45.123Z,88.01
2023-03-17T02:56:45.091Z,86.98
2023-03-17T02:57:45.103Z,85.11
2023-03-17T02:58:45.076Z,85.80
2023-03-17T02:59:45.070Z,87.56
2023-03-17T03:00:45.069Z,87.25
2023-03-17T03:01:45.152Z,85.80
2023-03-17T03:02:45.113Z,86.42
2023-03-17T03:03:45.032Z,85.70
2023-03-17T03:04:45.007Z,87.70
2023-03-17T03:05:45.006Z,86.05
2023-03-17T03:06:45.062Z,85.11
2023-03-17T03:07:45.002Z,84.60
2023-03-17T03:08:44.974Z,85.84
2023-03-17T03:09:44.963Z,86.77
2023-03-17T03:10:44.958Z,86.57
2023-03-17T03:11:44.946Z,84.81
2023-03-17T03:12:44.941Z,87.08
2023-03-17T03:13:44.945Z,86.15
2023-03-17T03:14:44.944Z,86.77
2023-03-17T03:15:44.931Z,87.08
2023-03-17T03:16:44.905Z,85.84
2023-03-17T03:17:44.894Z,87.29
2023-03-17T03:18:44.887Z,87.23
2023-03-17T03:19:44.897Z,86.60
2023-03-17T03:20:44.851Z,87.12
2023-03-17T03:21:44.845Z,85.36
2023-03-17T03:22:44.838Z,87.12
2023-03-17T03:23:44.825Z,84.70
2023-03-17T03:24:44.833Z,84.39
2023-03-17T03:25:44.807Z,86.25
2023-03-17T03:26:44.793Z,87.74
2023-03-17T03:27:44.798Z,86.60
2023-03-17T03:28:44.772Z,87.33
2023-03-17T03:29:44.762Z,86.19
2023-03-17T03:30:44.883Z,86.60
2023-03-17T03:31:44.749Z,86.81
2023-03-17T03:32:44.743Z,84.12
2023-03-17T03:33:44.728Z,85.26
2023-03-17T03:34:44.717Z,88.98
2023-03-17T03:35:44.785Z,87.74
2023-03-17T03:36:44.717Z,88.57
2023-03-17T03:37:44.711Z,87.02
2023-03-17T03:38:44.676Z,87.43
2023-03-17T03:39:44.674Z,86.71
2023-03-17T03:40:44.667Z,88.46
2023-03-17T03:41:44.669Z,87.23
2023-03-17T03:42:44.689Z,87.54
2023-03-17T03:43:44.623Z,88.20
2023-03-17T03:44:44.620Z,87.68
2023-03-17T03:45:44.603Z,88.61
2023-03-17T03:46:44.688Z,86.65
2023-03-17T03:47:44.585Z,86.02
2023-03-17T03:48:44.584Z,86.65
2023-03-17T03:49:44.565Z,87.68
2023-03-17T03:50:44.556Z,89.58
2023-03-17T03:51:44.539Z,89.58
2023-03-17T03:52:44.556Z,89.17
2023-03-17T03:53:44.522Z,90.31
2023-03-17T03:54:44.550Z,89.69
2023-03-17T03:55:44.512Z,90.66
2023-03-17T03:56:44.492Z,90.77
2023-03-17T03:57:44.488Z,90.45
2023-03-17T03:58:44.470Z,90.97
2023-03-17T03:59:44.481Z,91.02
2023-03-17T04:00:44.474Z,90.81
2023-03-17T04:01:44.448Z,91.74
2023-03-17T04:02:44.492Z,91.22
2023-03-17T04:03:44.420Z,89.04
2023-03-17T04:04:44.453Z,89.87
2023-03-17T04:05:44.397Z,90.23
2023-03-17T04:06:44.420Z,91.27
2023-03-17T04:07:44.414Z,91.99
2023-03-17T04:08:44.402Z,91.68
2023-03-17T04:09:44.360Z,92.30
2023-03-17T04:10:44.359Z,93.85
2023-03-17T04:11:44.368Z,92.93
2023-03-17T04:12:44.354Z,93.96
2023-03-17T04:13:44.336Z,93.49
2023-03-17T04:14:44.314Z,94.42
2023-03-17T04:15:44.303Z,93.28
2023-03-17T04:16:44.307Z,92.76
2023-03-17T04:17:44.291Z,92.66
2023-03-17T04:18:44.317Z,93.38
2023-03-17T04:19:44.282Z,92.97
2023-03-17T04:20:44.252Z,93.07
2023-03-17T04:21:44.243Z,92.86
2023-03-17T04:22:44.268Z,93.95
2023-03-17T04:23:44.250Z,93.95
2023-03-17T04:24:44.219Z,94.98
2023-03-17T04:25:44.196Z,93.95
2023-03-17T04:26:44.190Z,94.78
2023-03-17T04:27:44.182Z,94.36
2023-03-17T04:28:44.188Z,94.57
2023-03-17T04:29:44.167Z,94.15
2023-03-17T04:30:44.155Z,95.09
2023-03-17T04:31:44.191Z,94.05
2023-03-17T04:32:44.201Z,94.67
2023-03-17T04:33:44.133Z,95.29
2023-03-17T04:34:44.130Z,93.95
2023-03-17T04:35:44.186Z,94.26
2023-03-17T04:36:44.084Z,94.26
2023-03-17T04:37:44.125Z,94.36
2023-03-17T04:38:44.079Z,95.19
2023-03-17T04:39:44.063Z,94.26
2023-03-17T04:40:44.060Z,95.50
2023-03-17T04:41:44.042Z,95.86
2023-03-17T04:42:44.040Z,96.17
2023-03-17T04:43:44.039Z,94.82
2023-03-17T04:44:44.025Z,96.37
2023-03-17T04:45:44.026Z,95.86
2023-03-17T04:46:43.992Z,96.27
2023-03-17T04:47:43.986Z,96.17
2023-03-17T04:48:43.982Z,95.79
2023-03-17T04:49:43.962Z,94.96
2023-03-17T04:50:43.962Z,94.45
2023-03-17T04:51:43.951Z,94.51
2023-03-17T04:52:43.937Z,94.65
2023-03-17T04:53:43.933Z,94.96
2023-03-17T04:54:43.912Z,96.52
2023-03-17T04:55:43.891Z,96.21
2023-03-17T04:56:43.890Z,96.73
2023-03-17T04:57:43.890Z,96.42
2023-03-17T04:58:43.892Z,95.48
2023-03-17T04:59:43.897Z,95.28
2023-03-17T05:00:43.882Z,96.42
2023-03-17T05:01:43.833Z,96.21
2023-03-17T05:02:43.829Z,96.42
2023-03-17T05:03:43.811Z,96.94
2023-03-17T05:04:43.800Z,96.52
2023-03-17T05:05:43.815Z,95.48
2023-03-17T05:06:43.780Z,95.28
2023-03-17T05:07:43.782Z,96.94
2023-03-17T05:08:43.790Z,96.31
2023-03-17T05:09:43.769Z,95.28
2023-03-17T05:10:43.780Z,96.36
2023-03-17T05:11:43.729Z,96.15
2023-03-17T05:12:43.681Z,96.25
2023-03-17T05:13:43.666Z,96.36
2023-03-17T05:14:43.660Z,96.15
2023-03-17T05:15:43.638Z,96.36
2023-03-17T05:16:43.675Z,97.09
2023-03-17T05:17:43.685Z,96.57
2023-03-17T05:18:43.643Z,96.78
2023-03-17T05:19:43.592Z,97.09
2023-03-17T05:20:43.588Z,97.50
2023-03-17T05:21:43.605Z,96.88
2023-03-17T05:22:43.566Z,96.47
2023-03-17T05:23:43.568Z,96.47
2023-03-17T05:24:43.568Z,96.98
2023-03-17T05:25:43.550Z,97.09
2023-03-17T05:26:43.546Z,97.30
2023-03-17T05:27:43.518Z,98.02
2023-03-17T05:28:43.506Z,96.25
2023-03-17T05:29:43.486Z,96.04
2023-03-17T05:30:43.513Z,96.47
2023-03-17T05:31:43.487Z,97.40
2023-03-17T05:32:43.527Z,98.44
2023-03-17T05:33:43.463Z,97.71
2023-03-17T05:34:43.444Z,96.15
2023-03-17T05:35:43.511Z,96.78
2023-03-17T05:36:43.455Z,97.92
2023-03-17T05:37:43.405Z,97.75
2023-03-17T05:38:43.467Z,98.38
2023-03-17T05:39:43.385Z,98.59
2023-03-17T05:40:43.411Z,98.27
2023-03-17T05:41:43.381Z,98.07
2023-03-17T05:42:43.360Z,97.65
2023-03-17T05:43:43.362Z,98.17
2023-03-17T05:44:43.346Z,97.07
2023-03-17T05:45:43.422Z,97.80
2023-03-17T05:46:43.345Z,97.28
2023-03-17T05:47:43.324Z,97.38
2023-03-17T05:48:43.298Z,97.38
2023-03-17T05:49:43.295Z,96.86
2023-03-17T05:50:43.277Z,97.49
2023-03-17T05:51:43.271Z,97.59
2023-03-17T05:52:43.301Z,97.28
2023-03-17T05:53:43.258Z,98.07
2023-03-17T05:54:43.238Z,98.59
2023-03-17T05:55:43.224Z,97.65
2023-03-17T05:56:43.214Z,97.03
2023-03-17T05:57:43.217Z,97.44
2023-03-17T05:58:43.200Z,97.44
2023-03-17T05:59:43.202Z,97.24
2023-03-17T06:00:43.174Z,97.13
2023-03-17T06:01:43.160Z,97.34
2023-03-17T06:02:43.241Z,96.92
2023-03-17T06:03:43.232Z,95.99
2023-03-17T06:04:43.141Z,96.09
2023-03-17T06:05:43.134Z,96.15
2023-03-17T06:06:43.115Z,94.90
2023-03-17T06:07:52.831Z,95.38
2023-03-17T06:08:43.118Z,94.61
2023-03-17T06:09:43.084Z,94.15
2023-03-17T06:10:43.118Z,93.43
2023-03-17T06:11:43.070Z,92.66
2023-03-17T06:12:43.069Z,92.41
2023-03-17T06:13:43.044Z,91.58
2023-03-17T06:14:43.036Z,90.50
2023-03-17T06:15:43.128Z,91.85
2023-03-17T06:16:43.027Z,91.85
2023-03-17T06:17:43.026Z,91.02
2023-03-17T06:18:43.013Z,91.64
2023-03-17T06:19:42.989Z,90.25
2023-03-17T06:20:42.971Z,90.66
2023-03-17T06:21:42.979Z,89.62
2023-03-17T06:23:00.414Z,90.20
2023-03-17T06:23:42.967Z,88.65
2023-03-17T06:24:42.925Z,89.89
2023-03-17T06:25:42.954Z,88.86
2023-03-17T06:26:42.942Z,91.24
2023-03-17T06:27:42.915Z,89.89
2023-03-17T06:28:42.913Z,89.69
2023-03-17T06:29:42.883Z,87.27
2023-03-17T06:30:42.889Z,87.88
2023-03-17T06:31:42.888Z,88.71
2023-03-17T06:32:42.917Z,87.88
2023-03-17T06:33:42.841Z,88.82
2023-03-17T06:34:42.827Z,86.33
2023-03-17T06:35:42.921Z,87.12
2023-03-17T06:36:42.807Z,87.74
2023-03-17T06:37:42.798Z,85.26
2023-03-17T06:38:42.831Z,85.26
2023-03-17T06:39:42.787Z,87.12
2023-03-17T06:40:42.785Z,85.57
2023-03-17T06:41:42.793Z,85.94
2023-03-17T06:42:42.764Z,86.57
2023-03-17T06:43:42.874Z,86.05
2023-03-17T06:44:42.745Z,86.25
2023-03-17T06:45:42.744Z,84.60
2023-03-17T06:46:42.785Z,84.97
2023-03-17T06:47:42.701Z,83.42
2023-03-17T06:48:42.693Z,84.45
2023-03-17T06:49:42.680Z,83.01
2023-03-17T06:50:42.696Z,84.25
2023-03-17T06:51:42.690Z,84.66
2023-03-17T06:52:43.347Z,84.45
2023-03-17T06:53:42.653Z,84.11
2023-03-17T06:54:42.659Z,83.39
2023-03-17T06:55:42.618Z,82.45
2023-03-17T06:56:42.615Z,82.45
2023-03-17T06:57:42.643Z,83.90
2023-03-17T06:58:42.595Z,84.83
2023-03-17T06:59:42.615Z,83.80
2023-03-17T07:00:42.595Z,82.04
2023-03-17T07:01:42.677Z,83.80
2023-03-17T07:02:42.552Z,82.45
2023-03-17T07:03:42.547Z,85.24
2023-03-17T07:04:42.579Z,84.52
2023-03-17T07:05:42.554Z,85.35
2023-03-17T07:06:42.552Z,83.49
2023-03-17T07:07:42.530Z,85.97
2023-03-17T07:08:42.498Z,82.45
2023-03-17T07:09:42.485Z,84.31
2023-03-17T07:10:42.481Z,83.22
2023-03-17T07:11:42.469Z,85.60
2023-03-17T07:12:42.469Z,84.36
2023-03-17T07:13:42.454Z,83.42
2023-03-17T07:14:42.462Z,84.87
2023-03-17T07:15:42.451Z,84.36
2023-03-17T07:16:42.544Z,82.50
2023-03-17T07:17:42.427Z,84.97
2023-03-17T07:18:42.396Z,85.60
2023-03-17T07:19:42.426Z,85.80
2023-03-17T07:20:42.395Z,85.60
2023-03-17T07:21:42.385Z,84.77
2023-03-17T07:22:42.365Z,84.21
2023-03-17T07:23:42.409Z,83.59
2023-03-17T07:24:42.362Z,86.49
2023-03-17T07:25:42.353Z,84.73
2023-03-17T07:26:42.384Z,85.86
2023-03-17T07:27:42.326Z,85.45
2023-03-17T07:28:42.306Z,82.31
2023-03-17T07:29:42.291Z,83.76
2023-03-17T07:30:42.281Z,83.25
2023-03-17T07:31:42.416Z,83.65
2023-03-17T07:32:42.305Z,83.93
2023-03-17T07:33:42.274Z,83.97
2023-03-17T07:34:42.251Z,84.75
2023-03-17T07:35:42.258Z,85.37
2023-03-17T07:36:42.227Z,82.79
2023-03-17T07:37:42.254Z,81.76
2023-03-17T07:38:42.207Z,81.35
2023-03-17T07:39:42.201Z,83.31
2023-03-17T07:40:42.178Z,83.10
2023-03-17T07:41:42.165Z,80.21
2023-03-17T07:42:42.191Z,78.97
2023-03-17T07:43:42.151Z,79.80
2023-03-17T07:44:42.136Z,79.08
2023-03-17T07:45:42.157Z,82.59
2023-03-17T07:46:42.121Z,82.28
2023-03-17T07:47:42.100Z,83.31
2023-03-17T07:48:42.177Z,81.86
2023-03-17T07:49:42.726Z,79.69
2023-03-17T07:50:42.104Z,81.21
2023-03-17T07:51:42.078Z,82.24
2023-03-17T07:52:42.069Z,81.93
2023-03-17T07:53:42.060Z,83.48
2023-03-17T07:54:43.128Z,80.79
2023-03-17T07:55:42.028Z,82.86
2023-03-17T07:56:42.049Z,83.89
2023-03-17T07:57:42.105Z,84.72
2023-03-17T07:58:42.040Z,82.14
2023-03-17T07:59:41.981Z,83.58
2023-03-17T08:00:41.977Z,82.24
2023-03-17T08:01:42.018Z,83.58
2023-03-17T08:02:42.001Z,82.96
2023-03-17T08:03:42.145Z,82.51
2023-03-17T08:04:41.952Z,80.86
2023-03-17T08:05:41.946Z,81.07
2023-03-17T08:06:41.914Z,82.92
2023-03-17T08:07:41.917Z,81.68
2023-03-17T08:08:41.906Z,81.99
2023-03-17T08:09:41.885Z,82.92
2023-03-17T08:10:41.933Z,82.16
2023-03-17T08:11:41.867Z,81.96
2023-03-17T08:12:41.852Z,83.50
2023-03-17T08:13:41.862Z,82.89
2023-03-17T08:14:41.825Z,84.22
2023-03-17T08:15:41.836Z,81.65
2023-03-17T08:16:41.952Z,84.64
2023-03-17T08:17:41.800Z,82.37
2023-03-17T08:18:41.802Z,82.16
2023-03-17T08:19:41.799Z,80.58
2023-03-17T08:20:41.796Z,82.54
2023-03-17T08:21:41.796Z,80.37
2023-03-17T08:22:41.766Z,81.67
2023-03-17T08:23:41.768Z,81.37
2023-03-17T08:24:41.731Z,81.47
2023-03-17T08:25:41.711Z,81.16
2023-03-17T08:26:41.739Z,81.37
2023-03-17T08:27:41.693Z,79.88
2023-03-17T08:28:41.707Z,80.19
2023-03-17T08:29:41.719Z,81.95
2023-03-17T08:30:41.922Z,80.19
2023-03-17T08:31:41.743Z,78.86
2023-03-17T08:32:41.705Z,81.84
2023-03-17T08:33:41.645Z,80.81
2023-03-17T08:34:41.619Z,81.12
2023-03-17T08:35:41.745Z,80.61
2023-03-17T08:36:41.607Z,80.98
2023-03-17T08:37:41.595Z,78.00
2023-03-17T08:38:41.586Z,78.92
2023-03-17T08:39:41.570Z,80.05
2023-03-17T08:40:41.552Z,80.77
2023-03-17T08:41:41.568Z,80.26
2023-03-17T08:42:41.566Z,81.70
2023-03-17T08:43:41.538Z,80.05
2023-03-17T08:44:43.938Z,81.49
2023-03-17T08:45:41.554Z,80.36
2023-03-17T08:46:41.503Z,78.82
2023-03-17T08:47:41.489Z,80.67
2023-03-17T08:48:41.498Z,81.29
2023-03-17T08:49:41.458Z,81.19
2023-03-17T08:50:41.455Z,77.89
2023-03-17T08:51:41.435Z,78.51
2023-03-17T08:52:41.428Z,80.88
2023-03-17T08:53:41.412Z,78.20
2023-03-17T08:54:41.421Z,78.92
2023-03-17T08:55:41.401Z,79.50
2023-03-17T08:56:41.385Z,78.58
2023-03-17T08:57:41.369Z,80.12
2023-03-17T08:58:41.367Z,80.33
2023-03-17T08:59:41.361Z,78.17
2023-03-17T09:00:41.391Z,77.55
2023-03-17T09:01:41.386Z,79.19
2023-03-17T09:02:41.362Z,78.78
2023-03-17T09:03:41.330Z,78.37
2023-03-17T09:04:41.315Z,80.12
2023-03-17T09:05:41.316Z,80.74
2023-03-17T09:06:51.866Z,80.63
2023-03-17T09:07:41.300Z,79.61
2023-03-17T09:08:41.266Z,77.03
2023-03-17T09:09:41.256Z,78.64
2023-03-17T09:10:44.087Z,78.33
2023-03-17T09:11:41.232Z,78.54
2023-03-17T09:12:41.231Z,77.89
2023-03-17T09:13:41.197Z,76.65
2023-03-17T09:14:44.372Z,78.20
2023-03-17T09:15:41.238Z,78.50
2023-03-17T09:16:41.162Z,77.27
2023-03-17T09:17:41.155Z,77.06
2023-03-17T09:18:41.180Z,77.68
2023-03-17T09:19:41.143Z,78.50
2023-03-17T09:20:41.119Z,79.02
2023-03-17T09:21:41.105Z,77.68
2023-03-17T09:22:41.112Z,77.37
2023-03-17T09:23:41.110Z,76.65
2023-03-17T09:24:41.083Z,76.76
2023-03-17T09:25:41.086Z,76.97
2023-03-17T09:26:41.060Z,75.32
2023-03-17T09:27:41.059Z,75.80
2023-03-17T09:28:41.052Z,76.72
2023-03-17T09:29:41.026Z,75.29
2023-03-17T09:30:41.027Z,76.82
2023-03-17T09:31:41.107Z,76.62
2023-03-17T09:32:41.067Z,74.77
2023-03-17T09:33:40.992Z,76.42
2023-03-17T09:34:40.984Z,76.38
2023-03-17T09:35:41.084Z,75.15
2023-03-17T09:36:40.955Z,74.94
2023-03-17T09:37:40.995Z,73.91
2023-03-17T09:38:40.928Z,73.71
2023-03-17T09:39:40.907Z,74.74
2023-03-17T09:40:40.918Z,75.15
2023-03-17T09:41:40.892Z,75.87
2023-03-17T09:42:40.896Z,75.76
2023-03-17T09:43:40.875Z,76.93
2023-03-17T09:44:40.884Z,76.10
2023-03-17T09:45:43.474Z,77.85
2023-03-17T09:46:40.942Z,75.25
2023-03-17T09:47:42.758Z,75.15
2023-03-17T09:48:40.858Z,76.48
2023-03-17T09:49:40.807Z,74.84
2023-03-17T09:50:40.814Z,75.76
2023-03-17T09:51:40.815Z,75.25
2023-03-17T09:52:40.773Z,74.43
2023-03-17T09:53:40.767Z,74.74
2023-03-17T09:54:40.753Z,75.76
2023-03-17T09:55:40.747Z,75.97
2023-03-17T09:56:40.750Z,76.58
2023-03-17T09:57:40.805Z,77.81
2023-03-17T09:58:40.715Z,76.79
2023-03-17T09:59:40.731Z,76.58
2023-03-17T10:00:40.700Z,76.68
2023-03-17T10:01:40.759Z,75.35
2023-03-17T10:02:40.666Z,75.25
2023-03-17T10:03:40.658Z,78.94
2023-03-17T10:04:40.654Z,77.40
2023-03-17T10:05:40.737Z,78.94
2023-03-17T10:06:40.647Z,75.87
2023-03-17T10:07:40.617Z,77.30
2023-03-17T10:08:40.609Z,77.92
2023-03-17T10:09:40.603Z,78.64
2023-03-17T10:10:40.604Z,75.76
2023-03-17T10:11:40.586Z,77.37
2023-03-17T10:12:40.572Z,77.37
2023-03-17T10:13:40.563Z,74.40
2023-03-17T10:14:40.547Z,76.75
2023-03-17T10:15:40.559Z,75.59
2023-03-17T10:16:40.532Z,76.10
2023-03-17T10:17:40.524Z,74.77
2023-03-17T10:18:40.508Z,74.87
2023-03-17T10:19:40.494Z,74.98
2023-03-17T10:20:40.484Z,74.66
2023-03-17T10:21:40.496Z,76.00
2023-03-17T10:22:40.475Z,76.00
2023-03-17T10:23:40.468Z,75.86
2023-03-17T10:24:40.439Z,76.07
2023-03-17T10:25:40.434Z,74.73
2023-03-17T10:26:40.473Z,75.24
2023-03-17T10:27:40.415Z,74.29
2023-03-17T10:28:40.416Z,73.88
2023-03-17T10:29:40.442Z,74.08
2023-03-17T10:30:40.373Z,73.47
2023-03-17T10:31:40.415Z,73.27
2023-03-17T10:32:40.433Z,73.88
2023-03-17T10:33:40.374Z,74.70
2023-03-17T10:34:40.336Z,74.49
2023-03-17T10:35:40.367Z,75.73
2023-03-17T10:36:40.318Z,75.11
2023-03-17T10:37:42.569Z,74.49
2023-03-17T10:38:40.298Z,74.29
2023-03-17T10:39:40.301Z,75.62
2023-03-17T10:40:40.276Z,75.82
2023-03-17T10:41:40.274Z,75.31
2023-03-17T10:42:40.256Z,76.54
2023-03-17T10:43:40.248Z,77.06
2023-03-17T10:44:40.251Z,77.57
2023-03-17T10:45:42.813Z,75.52
2023-03-17T10:46:40.332Z,75.21
2023-03-17T10:47:40.214Z,76.03
2023-03-17T10:48:40.194Z,76.44
2023-03-17T10:49:40.184Z,75.69
2023-03-17T10:50:40.168Z,75.18
2023-03-17T10:51:40.160Z,75.69
2023-03-17T10:52:40.165Z,73.95
2023-03-17T10:53:40.166Z,76.40
2023-03-17T10:54:40.129Z,75.69
2023-03-17T10:55:40.121Z,75.48
2023-03-17T10:56:40.147Z,72.69
2023-03-17T10:57:40.094Z,72.28
2023-03-17T10:58:40.095Z,71.25
2023-03-17T10:59:42.093Z,72.55
2023-03-17T11:00:40.114Z,73.16
2023-03-17T11:01:40.105Z,71.53
2023-03-17T11:02:40.046Z,73.36
2023-03-17T11:03:40.116Z,74.08
2023-03-17T11:04:40.073Z,73.47
2023-03-17T11:05:40.187Z,73.06
2023-03-17T11:06:40.014Z,71.83
2023-03-17T11:07:39.995Z,74.19
2023-03-17T11:08:39.977Z,73.98
2023-03-17T11:09:40.001Z,73.06
2023-03-17T11:10:39.968Z,73.47
2023-03-17T11:11:39.956Z,72.55
2023-03-17T11:12:39.965Z,73.57
2023-03-17T11:13:39.923Z,72.62
2023-03-17T11:14:39.919Z,70.91
2023-03-17T11:15:39.928Z,74.69
2023-03-17T11:16:40.025Z,75.21
2023-03-17T11:17:39.881Z,72.86
2023-03-17T11:18:39.911Z,72.75
2023-03-17T11:19:39.860Z,73.36
2023-03-17T11:20:39.851Z,72.86
2023-03-17T11:21:39.857Z,73.03
2023-03-17T11:22:39.828Z,70.16
2023-03-17T11:23:39.830Z,73.13
2023-03-17T11:24:39.804Z,72.52
2023-03-17T11:25:39.797Z,73.54
2023-03-17T11:26:39.813Z,72.72
2023-03-17T11:27:39.787Z,72.31
2023-03-17T11:28:39.758Z,72.00
2023-03-17T11:29:39.760Z,74.56
2023-03-17T11:30:39.754Z,71.80
2023-03-17T11:31:39.788Z,73.03
2023-03-17T11:32:39.784Z,73.64
2023-03-17T11:33:39.707Z,74.05
2023-03-17T11:34:39.699Z,73.74
2023-03-17T11:35:39.733Z,70.78
2023-03-17T11:36:39.674Z,72.72
2023-03-17T11:37:39.693Z,73.40
2023-03-17T11:38:39.665Z,71.15
2023-03-17T11:39:39.643Z,71.66
2023-03-17T11:40:39.630Z,71.05
2023-03-17T11:41:39.618Z,69.62
2023-03-17T11:42:39.606Z,72.52
2023-03-17T11:43:39.616Z,73.94
2023-03-17T11:44:39.578Z,71.97
2023-03-17T11:45:39.611Z,72.89
2023-03-17T11:46:39.577Z,73.61
2023-03-17T11:47:39.550Z,71.46
2023-03-17T11:48:39.565Z,72.79
2023-03-17T11:49:39.584Z,70.34
2023-03-17T11:50:39.519Z,70.61
2023-03-17T11:51:39.513Z,71.87
2023-03-17T11:52:39.492Z,70.84
2023-03-17T11:53:39.511Z,70.84
2023-03-17T11:54:39.471Z,72.99
2023-03-17T11:55:39.454Z,71.87
2023-03-17T11:56:39.443Z,73.20
2023-03-17T11:57:39.434Z,73.50
2023-03-17T11:58:39.421Z,70.54
2023-03-17T11:59:39.428Z,73.10
2023-03-17T12:00:39.406Z,72.38
2023-03-17T12:01:39.390Z,71.87
2023-03-17T12:02:39.390Z,71.15
2023-03-17T12:03:39.452Z,72.17
2023-03-17T12:04:39.427Z,72.69
2023-03-17T12:05:39.361Z,72.38
2023-03-17T12:06:39.333Z,70.75
2023-03-17T12:07:39.325Z,73.40
2023-03-17T12:08:39.306Z,71.66
2023-03-17T12:09:39.324Z,71.97
2023-03-17T12:10:39.300Z,73.91
2023-03-17T12:11:39.325Z,70.81
2023-03-17T12:12:39.260Z,73.57
2023-03-17T12:13:39.271Z,71.53
2023-03-17T12:14:39.240Z,72.45
2023-03-17T12:15:39.405Z,71.01
2023-03-17T12:16:39.215Z,72.31
2023-03-17T12:17:39.231Z,71.80
2023-03-17T12:18:39.218Z,70.61
2023-03-17T12:19:39.185Z,73.77
2023-03-17T12:20:39.171Z,72.75
2023-03-17T12:21:39.187Z,73.84
2023-03-17T12:22:39.153Z,72.31
2023-03-17T12:23:39.216Z,72.00
2023-03-17T12:24:39.158Z,70.68
2023-03-17T12:25:39.128Z,70.88
2023-03-17T12:26:39.116Z,71.36
2023-03-17T12:27:39.112Z,70.54
2023-03-17T12:28:39.084Z,70.85
2023-03-17T12:29:39.075Z,70.00
2023-03-17T12:30:39.069Z,70.40
2023-03-17T12:31:39.062Z,70.10
2023-03-17T12:32:39.119Z,68.88
2023-03-17T12:33:39.031Z,70.31
2023-03-17T12:34:39.017Z,70.51
2023-03-17T12:35:39.101Z,69.08
2023-03-17T12:36:38.992Z,70.72
2023-03-17T12:37:38.976Z,71.43
2023-03-17T12:38:38.978Z,71.77
2023-03-17T12:39:38.954Z,71.97
2023-03-17T12:40:38.949Z,72.69
2023-03-17T12:41:38.940Z,71.15
2023-03-17T12:42:38.963Z,73.60
2023-03-17T12:43:38.949Z,72.99
2023-03-17T12:44:38.905Z,72.58
2023-03-17T12:45:38.887Z,71.05
2023-03-17T12:46:38.946Z,72.28
2023-03-17T12:47:38.869Z,73.50
2023-03-17T12:48:38.879Z,71.05
2023-03-17T12:49:38.847Z,71.46
2023-03-17T12:50:38.847Z,72.62
2023-03-17T12:51:38.811Z,72.62
2023-03-17T12:52:38.813Z,74.05